Decoded Metar for LKNA (NAMEST in CZECH REPUBLIC) (IATA:N/A) | Meteo·Mobile Aviation Weather
aviador You're here:

LKNA Decoded Metar

NAMEST in CZECH REPUBLIC
Report Time2018-11-16 07:00:00
UTC Time2018-11-16 07:40:54
Flight Rules vfr VFR
Wind050° at 03 kt
W.Decomp.*RWY 13: 0.4 kt HW 3 kt LCW
W.Rank050° ranks 24
Current wind is below 050° avg. (5.1)
Visibility9999 m
Phenomena:N/A
Clouds:N/A
Expected CloudBase > 1,600 ft AGL from Temp-Dew spread
CeilingNone
Temp03°C (ISA -9)
Dew Point-1°C (75% RH)
AAT-0.2°C
QNH1031 hPa
Density Alt-56 ft
Elevation1,549 ft
Report Wrong Elevation
Raw Report
METAR LKNA 160700Z 05003KT 030V100 CAVOK 03/M01 Q1031 NOSIG=

Extra information for LKNA:More info

Metar Taf Metar & Taf Last 4 Metars F.Rules Stats Wind Profile Meteogram Temp Stats Airport Information Weather charts Add Link Nearby VenuesMetar ALERT Operation Metar Decoded Social comments